ニューヨーク/JFK の空港の天気 - METARとTAF

ジョン・F・ケネディ国際空港 ( KJFK / JFK ) - アメリカ ニューヨーク州ニューヨーク
飛行場実況気象(Metar)
観測時間08/17 22:51 EDT (08/18 02:51 UTC)
風向・風速北西 5m/s
視程10km以上
天気現象弱い雨
少しの雲 雲底高度 850m
全天の4割程度の雲 雲底高度 3350m
全天の8割程度の雲 雲底高度 4570m
全天を覆う雲 雲底高度 7010m
気温25.6℃
湿度76%
気圧1014.4hPa
METARKJFK 180251Z COR 31009KT 10SM -RA FEW028 SCT110 BKN150 OVC230 26/21 A2996 RMK AO2 WSHFT 0204 LTG DSNT W-NE RAB35 TSE16 SLP144 OCNL LTGIC DSNT N CB DSNT N P0000 60000 T02560211 53003
過去の天気等 Google飛行場航空写真 Wunderground天気予報

過去48時間のMETAR

飛行場予報(TAF)
発表時間: 8/17 23:04 EDT (8/18 03:04 UTC)
予報対象時間: 17日23時 EDT ~ 19日2時 EDT
風向・風速西 5m/s
視程10km以上
天気現象周辺で雷
全天の4割程度の雲 雲底高度 760m
全天の8割程度の積乱雲 雲底高度 1220m
18日0時 EDT から
風向・風速西 8m/s 瞬間風速 13m/s
視程8050m
天気現象強い雷雨
全天の8割程度の積乱雲 雲底高度 1220m
18日2時 EDT から
風向・風速南西 4m/s
視程10km以上
全天の8割程度の雲 雲底高度 1220m
18日10時 EDT から
風向・風速西南西 4m/s
視程10km以上
天気現象周辺で雷
全天の8割程度の積乱雲 雲底高度 1220m
18日20時 EDT から
風向・風速西 5m/s
視程10km以上
天気現象周辺でしゅう雨
全天の4割程度の雲 雲底高度 1830m
全天の8割程度の雲 雲底高度 4570m
18日20時 EDT から 確率 30% で
視程3220m
天気現象
全天を覆う積乱雲 雲底高度 1220m
KJFK 180304Z 1803/1906 28010KT P6SM VCTS SCT025 BKN040CB
FM180400 28015G25KT 5SM +TSRA BKN040CB
FM180600 22008KT P6SM BKN040
FM181400 24008KT P6SM VCTS BKN040CB
FM190000 27010KT P6SM VCSH SCT060 BKN150
PROB30 1900/1906 2SM TS OVC040CB